Time;durP1;ratioP1;P1;durP2;ratioP2;P2;SDS_P1;SDS_P2;PMS_P1;PMS_P2;Temp;Humidity;BMP_temperature;BMP_pressure;BME280_temperature;BME280_humidity;BME280_pressure;Samples;Min_cycle;Max_cycle;Signal;HPM_P1;HPM_P2
2022/11/22 00:01:47;;;;;;;3.17;2.23;;;5.00;99.90;;;;;;4957587;28;20215;-82
2022/11/22 00:04:13;;;;;;;3.40;1.90;;;5.10;99.90;;;;;;4957595;29;20212;-82
2022/11/22 00:06:38;;;;;;;4.90;2.00;;;5.20;99.90;;;;;;4957451;29;20209;-82
2022/11/22 00:09:04;;;;;;;5.30;2.20;;;5.20;99.90;;;;;;4957443;29;20174;-82
2022/11/22 00:11:29;;;;;;;2.73;2.27;;;5.10;99.90;;;;;;4955968;28;20193;-82
2022/11/22 00:13:55;;;;;;;3.93;1.93;;;5.10;99.90;;;;;;4955966;29;20216;-82
2022/11/22 00:16:20;;;;;;;3.27;2.10;;;5.10;99.90;;;;;;4955961;29;20169;-82
2022/11/22 00:18:46;;;;;;;3.53;2.30;;;5.10;99.90;;;;;;4955804;29;20605;-82
2022/11/22 00:21:11;;;;;;;2.37;2.10;;;5.10;99.90;;;;;;4957280;28;20184;-82
2022/11/22 00:23:37;;;;;;;3.80;2.30;;;5.10;99.90;;;;;;4957518;29;20276;-81
2022/11/22 00:26:03;;;;;;;4.87;2.00;;;5.10;99.90;;;;;;4957157;29;20197;-82
2022/11/22 00:28:28;;;;;;;2.90;2.30;;;5.00;99.90;;;;;;4955516;29;20173;-82
2022/11/22 00:30:54;;;;;;;5.00;2.20;;;5.10;99.90;;;;;;4956295;29;20538;-83
2022/11/22 00:33:19;;;;;;;4.00;2.33;;;5.00;99.90;;;;;;4957155;28;20201;-82
2022/11/22 00:35:45;;;;;;;3.27;2.30;;;5.00;99.90;;;;;;4955945;29;20193;-82
2022/11/22 00:38:11;;;;;;;3.30;2.10;;;5.00;99.90;;;;;;4957186;28;20264;-82
2022/11/22 00:40:36;;;;;;;4.83;2.33;;;5.00;99.90;;;;;;4955495;29;20259;-82
2022/11/22 00:43:02;;;;;;;3.07;2.60;;;5.00;99.90;;;;;;4955522;28;20204;-82
2022/11/22 00:45:28;;;;;;;3.40;3.00;;;4.90;99.90;;;;;;4955506;29;20192;-82
2022/11/22 00:47:53;;;;;;;4.83;2.77;;;4.80;99.90;;;;;;4955320;29;20179;-82
2022/11/22 00:50:19;;;;;;;4.50;3.00;;;4.80;99.90;;;;;;4955426;29;20173;-82
2022/11/22 00:52:44;;;;;;;4.97;3.00;;;4.80;99.90;;;;;;4956747;28;20208;-82
2022/11/22 00:55:10;;;;;;;3.77;3.03;;;4.80;99.90;;;;;;4955747;29;20185;-82
2022/11/22 00:57:35;;;;;;;5.83;3.33;;;4.80;99.90;;;;;;4955096;29;20172;-82
2022/11/22 01:00:01;;;;;;;6.33;3.10;;;4.70;99.90;;;;;;4955414;29;20192;-83
2022/11/22 01:02:26;;;;;;;4.20;3.10;;;4.70;99.90;;;;;;4956408;28;20248;-82
2022/11/22 01:04:52;;;;;;;5.70;3.30;;;4.60;99.90;;;;;;4955473;29;20232;-82
2022/11/22 01:07:17;;;;;;;4.57;3.40;;;4.60;99.90;;;;;;4955486;29;20232;-82
2022/11/22 01:09:43;;;;;;;3.73;3.07;;;4.60;99.90;;;;;;4954951;29;20199;-82
2022/11/22 01:12:09;;;;;;;4.40;3.30;;;4.60;99.90;;;;;;4955593;28;20201;-82
2022/11/22 01:14:34;;;;;;;4.87;3.30;;;4.60;99.90;;;;;;4956401;29;20202;-82
2022/11/22 01:17:00;;;;;;;5.23;3.43;;;4.60;99.90;;;;;;4955196;29;20192;-84
2022/11/22 01:19:25;;;;;;;4.60;3.40;;;4.60;99.90;;;;;;4954966;29;20185;-82
2022/11/22 01:21:51;;;;;;;4.70;3.40;;;4.60;99.90;;;;;;4955066;28;20572;-82
2022/11/22 01:24:16;;;;;;;5.50;3.30;;;4.60;99.90;;;;;;4956472;29;20197;-82
2022/11/22 01:26:42;;;;;;;4.23;3.50;;;4.60;99.90;;;;;;4956147;29;20289;-82
2022/11/22 01:29:07;;;;;;;5.00;3.80;;;4.60;99.90;;;;;;4954898;29;20180;-82
2022/11/22 01:31:33;;;;;;;7.57;4.07;;;4.60;99.90;;;;;;4956478;28;20334;-82
2022/11/22 01:33:58;;;;;;;4.77;3.40;;;4.60;99.90;;;;;;4956345;29;20181;-82
2022/11/22 01:36:25;;;;;;;5.40;3.70;;;4.50;99.90;;;;;;4956249;29;20187;-82
2022/11/22 01:38:51;;;;;;;4.70;3.50;;;4.50;99.90;;;;;;4955398;29;20192;-81
2022/11/22 01:41:17;;;;;;;5.40;3.57;;;4.50;99.90;;;;;;4954730;28;20177;-82
2022/11/22 01:43:42;;;;;;;4.13;3.73;;;4.50;99.90;;;;;;4954944;29;20555;-82
2022/11/22 01:46:22;;;;;;;6.13;3.93;;;4.50;99.90;;;;;;4954775;29;20201;-82
2022/11/22 01:48:51;;;;;;;4.57;3.80;;;4.50;99.90;;;;;;4954588;29;20189;-82
2022/11/22 01:51:35;;;;;;;4.50;3.50;;;4.40;99.90;;;;;;4955382;28;20175;-82
2022/11/22 01:54:06;;;;;;;4.70;3.67;;;4.40;99.90;;;;;;4954601;29;20175;-82
2022/11/22 01:56:33;;;;;;;4.30;3.70;;;4.40;99.90;;;;;;4970821;28;20165;-82
2022/11/22 01:59:07;;;;;;;4.37;3.53;;;4.40;99.90;;;;;;4954563;29;20173;-81
2022/11/22 02:04:02;;;;;;;5.23;3.60;;;4.30;99.90;;;;;;5031784;23;20233;-83
2022/11/22 02:06:36;;;;;;;5.47;3.73;;;4.40;99.90;;;;;;5012997;28;20210;-83
2022/11/22 02:09:11;;;;;;;4.50;3.43;;;4.40;99.90;;;;;;5012520;28;20547;-83
2022/11/22 02:11:42;;;;;;;5.20;3.53;;;4.40;99.90;;;;;;5011359;28;20194;-82
2022/11/22 02:14:08;;;;;;;5.40;3.50;;;4.30;99.90;;;;;;4992920;28;20175;-83
2022/11/22 02:16:36;;;;;;;5.23;3.70;;;4.40;99.90;;;;;;4992847;28;20190;-83
2022/11/22 02:19:02;;;;;;;5.33;3.60;;;4.40;99.90;;;;;;4991628;28;20180;-83
2022/11/22 02:21:28;;;;;;;4.67;3.90;;;4.40;99.90;;;;;;4991703;28;20187;-83
2022/11/22 02:24:29;;;;;;;4.87;3.80;;;4.30;99.90;;;;;;4991737;28;20199;-83
2022/11/22 02:26:54;;;;;;;6.67;4.10;;;4.40;99.90;;;;;;4992811;28;20198;-83
2022/11/22 02:29:20;;;;;;;5.10;4.20;;;4.40;99.90;;;;;;4992864;28;20272;-83
2022/11/22 02:31:46;;;;;;;6.97;4.03;;;4.30;99.90;;;;;;4992945;28;20175;-83
2022/11/22 02:34:13;;;;;;;6.10;4.00;;;4.30;99.90;;;;;;4992939;28;20552;-83
2022/11/22 02:36:52;;;;;;;5.27;3.80;;;4.40;99.90;;;;;;4992871;28;20207;-83
2022/11/22 02:39:30;;;;;;;4.90;4.10;;;4.30;99.90;;;;;;4991440;28;20194;-83
2022/11/22 02:41:56;;;;;;;4.93;4.00;;;4.30;99.90;;;;;;4991539;28;20533;-83
2022/11/22 02:44:22;;;;;;;5.87;3.80;;;4.40;99.90;;;;;;4991693;28;20179;-83
2022/11/22 02:46:54;;;;;;;4.83;3.70;;;4.40;99.90;;;;;;4991745;28;20196;-83
2022/11/22 02:49:22;;;;;;;4.83;3.60;;;4.40;99.90;;;;;;4992547;28;20222;-83
2022/11/22 02:51:48;;;;;;;4.43;3.77;;;4.30;99.90;;;;;;4991148;28;20205;-83
2022/11/22 02:54:14;;;;;;;5.93;3.60;;;4.40;99.90;;;;;;4991382;28;20270;-83
2022/11/22 02:56:40;;;;;;;5.97;3.60;;;4.40;99.90;;;;;;4992490;28;20273;-84
2022/11/22 02:59:06;;;;;;;4.10;3.33;;;4.40;99.90;;;;;;4992548;28;20186;-83
2022/11/22 03:01:32;;;;;;;5.60;3.33;;;4.40;99.90;;;;;;4992580;28;20184;-84
2022/11/22 03:03:57;;;;;;;6.33;3.50;;;4.40;99.90;;;;;;4996082;28;20222;-83
2022/11/22 03:06:23;;;;;;;4.33;3.37;;;4.50;99.90;;;;;;4995990;28;20624;-83
2022/11/22 03:08:48;;;;;;;4.27;3.47;;;4.40;99.90;;;;;;4995987;28;20176;-83
2022/11/22 03:11:14;;;;;;;4.87;3.40;;;4.40;99.90;;;;;;4996451;28;20176;-83
2022/11/22 03:13:40;;;;;;;6.10;3.37;;;4.40;99.90;;;;;;4994945;28;20683;-83
2022/11/22 03:16:05;;;;;;;4.60;3.30;;;4.40;99.90;;;;;;4994699;28;20282;-81
2022/11/22 03:18:35;;;;;;;4.13;3.17;;;4.40;99.90;;;;;;4996034;28;20182;-83
2022/11/22 03:21:02;;;;;;;5.53;3.50;;;4.30;99.90;;;;;;4995775;28;20202;-84
2022/11/22 03:23:28;;;;;;;4.70;3.27;;;4.30;99.90;;;;;;4994772;28;20203;-83
2022/11/22 03:25:54;;;;;;;4.67;3.07;;;4.40;99.90;;;;;;4994646;28;20214;-83
2022/11/22 03:28:19;;;;;;;3.70;3.27;;;4.40;99.90;;;;;;4995543;28;20227;-83
2022/11/22 03:30:45;;;;;;;4.97;3.10;;;4.40;99.90;;;;;;4994686;28;20182;-84
2022/11/22 03:33:10;;;;;;;5.37;3.00;;;4.40;99.90;;;;;;4994536;28;20196;-83
2022/11/22 03:35:36;;;;;;;4.70;3.17;;;4.40;99.90;;;;;;4996035;28;20279;-83
2022/11/22 03:38:02;;;;;;;4.23;3.00;;;4.40;99.90;;;;;;4995619;28;20199;-84
2022/11/22 03:40:27;;;;;;;7.07;2.90;;;4.40;99.90;;;;;;4995609;28;20183;-83
2022/11/22 03:42:53;;;;;;;5.60;2.70;;;4.50;99.90;;;;;;4995662;28;20196;-83
2022/11/22 03:45:19;;;;;;;4.63;2.70;;;4.50;99.90;;;;;;4995544;28;20562;-83
2022/11/22 03:47:44;;;;;;;4.80;2.57;;;4.50;99.90;;;;;;4994056;28;20215;-83
2022/11/22 03:50:10;;;;;;;4.70;2.53;;;4.60;99.90;;;;;;4995312;28;20175;-84
2022/11/22 03:52:36;;;;;;;3.83;2.47;;;4.70;99.90;;;;;;4994334;28;20574;-84
2022/11/22 03:55:01;;;;;;;5.50;2.80;;;4.70;99.90;;;;;;4994086;28;20172;-83
2022/11/22 03:57:27;;;;;;;3.23;2.30;;;4.70;99.90;;;;;;4993843;28;20179;-83
2022/11/22 03:59:52;;;;;;;4.83;2.73;;;4.70;99.90;;;;;;4995496;28;20187;-83
2022/11/22 04:02:18;;;;;;;3.43;2.70;;;4.70;99.90;;;;;;4995021;28;20608;-83
2022/11/22 04:04:43;;;;;;;4.33;2.70;;;4.60;99.90;;;;;;4993811;28;20182;-83
2022/11/22 04:07:09;;;;;;;5.00;2.60;;;4.70;99.90;;;;;;4995027;28;20217;-83
2022/11/22 04:09:35;;;;;;;4.50;2.83;;;4.70;99.90;;;;;;4994978;28;20186;-82
2022/11/22 04:12:00;;;;;;;4.57;2.70;;;4.70;99.90;;;;;;4993666;28;20242;-83
2022/11/22 04:17:39;;;;;;;4.03;2.67;;;4.80;99.90;;;;;;4994801;28;20234;-82
2022/11/22 04:22:43;;;;;;;3.27;2.57;;;4.70;99.90;;;;;;4995010;28;20206;-83
2022/11/22 04:25:14;;;;;;;4.53;3.10;;;4.70;99.90;;;;;;4993488;28;20187;-83
2022/11/22 04:27:40;;;;;;;2.97;2.67;;;4.70;99.90;;;;;;4993127;28;20338;-83
2022/11/22 04:30:06;;;;;;;4.03;2.77;;;4.70;99.90;;;;;;4994776;28;20207;-83
2022/11/22 04:32:46;;;;;;;3.10;2.70;;;4.70;99.90;;;;;;4994864;28;20257;-83
2022/11/22 04:35:14;;;;;;;4.23;2.83;;;4.70;99.90;;;;;;4994545;28;20177;-83
2022/11/22 04:37:40;;;;;;;3.40;2.97;;;4.70;99.90;;;;;;4994502;28;20215;-83
2022/11/22 04:40:06;;;;;;;3.70;2.77;;;4.70;99.90;;;;;;4994227;28;20187;-83
2022/11/22 04:45:16;;;;;;;3.80;2.50;;;4.70;99.90;;;;;;4994460;28;20202;-83
2022/11/22 04:47:59;;;;;;;3.53;2.80;;;4.70;99.90;;;;;;4993150;28;20680;-82
2022/11/22 04:53:12;;;;;;;5.00;3.17;;;4.70;99.90;;;;;;4994300;28;20242;-83
2022/11/22 04:55:37;;;;;;;5.10;2.80;;;4.70;99.90;;;;;;4992994;28;20705;-83
2022/11/22 04:58:03;;;;;;;4.13;2.93;;;4.70;99.90;;;;;;4992466;28;20271;-83
2022/11/22 05:00:29;;;;;;;3.27;2.97;;;4.70;99.90;;;;;;4994086;28;20168;-83
2022/11/22 05:02:56;;;;;;;3.47;3.00;;;4.70;99.90;;;;;;4992785;28;20288;-83
2022/11/22 05:05:23;;;;;;;3.77;3.00;;;4.70;99.90;;;;;;4993065;28;20614;-83
2022/11/22 05:07:49;;;;;;;3.37;2.90;;;4.60;99.90;;;;;;4993878;28;20221;-84
2022/11/22 05:10:14;;;;;;;3.57;3.07;;;4.70;99.90;;;;;;4994075;28;20172;-83
2022/11/22 05:12:41;;;;;;;5.13;3.13;;;4.70;99.90;;;;;;4992748;28;20223;-83
2022/11/22 05:15:08;;;;;;;3.87;2.90;;;4.70;99.90;;;;;;4992666;28;20175;-83
2022/11/22 05:17:33;;;;;;;3.90;3.20;;;4.60;99.90;;;;;;4992489;28;20183;-83
2022/11/22 05:19:59;;;;;;;4.23;3.30;;;4.70;99.90;;;;;;4993749;28;20648;-83
2022/11/22 05:25:11;;;;;;;3.43;3.03;;;4.70;99.90;;;;;;4994036;28;20189;-83
2022/11/22 05:27:37;;;;;;;5.47;3.60;;;4.70;99.90;;;;;;4993257;28;20202;-80
2022/11/22 05:30:04;;;;;;;5.17;3.27;;;4.70;99.90;;;;;;4993629;28;20178;-83
2022/11/22 05:32:30;;;;;;;5.60;3.17;;;4.80;99.90;;;;;;4992287;28;20233;-83
2022/11/22 05:34:56;;;;;;;4.80;3.60;;;4.70;99.90;;;;;;4992455;28;20167;-83
2022/11/22 05:37:22;;;;;;;5.73;3.60;;;4.70;99.90;;;;;;4992269;28;20258;-83
2022/11/22 05:39:48;;;;;;;5.23;3.33;;;4.70;99.90;;;;;;4993497;28;20325;-83
2022/11/22 05:42:13;;;;;;;6.10;3.73;;;4.80;99.90;;;;;;4993235;28;20220;-83
2022/11/22 05:44:39;;;;;;;4.03;3.40;;;4.70;99.90;;;;;;4993049;28;20191;-83
2022/11/22 05:47:04;;;;;;;5.30;3.40;;;4.70;99.90;;;;;;4992117;28;20222;-85
2022/11/22 05:49:30;;;;;;;4.87;3.50;;;4.70;99.90;;;;;;4992145;28;20171;-85
2022/11/22 05:51:56;;;;;;;5.20;3.60;;;4.70;99.90;;;;;;4993127;28;20197;-85
2022/11/22 05:54:21;;;;;;;5.90;3.33;;;4.70;99.90;;;;;;4991929;28;20172;-82
2022/11/22 05:56:47;;;;;;;5.53;3.67;;;4.70;99.90;;;;;;4993634;28;20206;-83
2022/11/22 05:59:13;;;;;;;5.43;3.83;;;4.70;99.90;;;;;;4991461;28;20207;-87
2022/11/22 06:01:39;;;;;;;5.03;3.43;;;4.70;99.90;;;;;;4991489;28;20225;-88
2022/11/22 06:04:04;;;;;;;4.70;3.43;;;4.70;99.90;;;;;;4991795;28;20183;-89
2022/11/22 06:06:30;;;;;;;5.30;3.73;;;4.70;99.90;;;;;;4991699;28;20206;-84
2022/11/22 06:08:57;;;;;;;4.73;3.77;;;4.70;99.90;;;;;;4993361;28;20172;-82
2022/11/22 06:11:25;;;;;;;6.20;3.87;;;4.80;99.90;;;;;;4992204;28;20182;-82
2022/11/22 06:13:55;;;;;;;5.37;3.97;;;4.80;99.90;;;;;;4991800;28;20243;-82
2022/11/22 06:16:21;;;;;;;5.47;3.70;;;4.80;99.90;;;;;;4992245;28;20183;-83
2022/11/22 06:18:47;;;;;;;6.73;4.43;;;4.90;99.90;;;;;;4991779;28;20262;-82
2022/11/22 06:21:23;;;;;;;4.87;4.27;;;4.90;99.90;;;;;;4993333;28;20180;-83
2022/11/22 06:23:50;;;;;;;6.50;4.43;;;4.80;99.90;;;;;;4992267;28;20206;-82
2022/11/22 06:26:18;;;;;;;4.67;3.90;;;4.80;99.90;;;;;;4992240;28;20198;-83
2022/11/22 06:28:45;;;;;;;5.57;4.10;;;4.80;99.90;;;;;;4993130;28;20570;-82
2022/11/22 06:31:15;;;;;;;7.33;4.17;;;4.80;99.90;;;;;;4992320;28;20267;-83
2022/11/22 06:33:42;;;;;;;4.63;4.07;;;4.80;99.90;;;;;;4991936;28;20195;-82
2022/11/22 06:36:11;;;;;;;5.83;4.03;;;4.90;99.90;;;;;;4992373;28;20190;-82
2022/11/22 06:38:38;;;;;;;7.30;4.47;;;4.90;99.90;;;;;;4997525;28;20184;-82
2022/11/22 06:41:05;;;;;;;6.20;4.40;;;5.00;99.90;;;;;;4997602;28;20190;-82
2022/11/22 06:43:33;;;;;;;6.83;4.20;;;5.00;99.90;;;;;;4997454;28;20566;-80
2022/11/22 06:45:59;;;;;;;6.40;4.00;;;5.00;99.90;;;;;;4997333;28;20203;-82
2022/11/22 06:48:28;;;;;;;4.10;3.70;;;5.00;99.90;;;;;;4996698;28;20183;-82
2022/11/22 06:51:01;;;;;;;4.37;3.97;;;5.00;99.90;;;;;;4995674;28;20599;-82
2022/11/22 06:53:28;;;;;;;6.80;3.97;;;5.00;99.90;;;;;;4997029;28;20195;-83
2022/11/22 06:55:59;;;;;;;4.90;3.70;;;5.00;99.90;;;;;;4996569;28;20176;-83
2022/11/22 06:58:25;;;;;;;5.67;4.30;;;5.00;99.90;;;;;;4996506;28;20250;-82
2022/11/22 07:00:50;;;;;;;5.40;4.20;;;4.90;99.90;;;;;;4995403;28;20231;-82
2022/11/22 07:03:16;;;;;;;6.67;4.20;;;5.00;99.90;;;;;;4995505;28;20218;-82
2022/11/22 07:05:49;;;;;;;6.40;4.33;;;5.00;99.90;;;;;;4995354;28;20180;-82
2022/11/22 07:08:15;;;;;;;6.87;4.87;;;5.00;99.90;;;;;;4995385;28;20637;-82
2022/11/22 07:10:40;;;;;;;7.03;4.33;;;5.00;99.90;;;;;;4996363;28;20178;-82
2022/11/22 07:13:06;;;;;;;6.73;4.37;;;5.00;99.90;;;;;;4995930;28;20191;-81
2022/11/22 07:15:31;;;;;;;5.53;4.40;;;5.00;99.90;;;;;;4997168;28;20222;-80
2022/11/22 07:17:57;;;;;;;6.90;4.17;;;5.00;99.90;;;;;;4996874;28;20187;-79
2022/11/22 07:20:22;;;;;;;7.07;4.37;;;5.00;99.90;;;;;;4997407;28;20224;-80
2022/11/22 07:22:48;;;;;;;6.37;4.60;;;5.00;99.90;;;;;;4997768;28;20210;-79
2022/11/22 07:25:13;;;;;;;5.57;4.00;;;5.00;99.90;;;;;;4995730;28;20211;-79
2022/11/22 07:27:39;;;;;;;4.87;3.87;;;5.00;99.90;;;;;;4995741;28;20226;-77
2022/11/22 07:30:05;;;;;;;6.27;4.20;;;5.00;99.90;;;;;;4995763;28;20198;-78
2022/11/22 07:32:31;;;;;;;6.17;4.60;;;5.00;99.90;;;;;;4995223;28;20275;-79
2022/11/22 07:34:56;;;;;;;4.83;4.10;;;5.00;99.90;;;;;;4995671;28;20258;-79
2022/11/22 07:37:22;;;;;;;7.40;4.43;;;5.00;99.90;;;;;;4996630;28;20267;-79
2022/11/22 07:39:47;;;;;;;5.57;4.23;;;5.00;99.90;;;;;;4995112;28;20682;-79
2022/11/22 07:42:13;;;;;;;6.80;4.17;;;5.00;99.90;;;;;;4996552;28;20196;-79
2022/11/22 07:44:38;;;;;;;5.13;4.40;;;5.00;99.90;;;;;;4995202;28;20556;-79
2022/11/22 07:47:04;;;;;;;5.30;3.97;;;5.10;99.90;;;;;;4996362;28;20206;-79
2022/11/22 07:49:29;;;;;;;4.83;4.23;;;5.10;99.90;;;;;;4993931;28;20198;-79
2022/11/22 07:51:55;;;;;;;7.40;4.53;;;5.10;99.90;;;;;;4995926;28;20258;-79
2022/11/22 07:54:21;;;;;;;9.13;4.10;;;5.20;99.90;;;;;;4996369;28;20172;-79
2022/11/22 07:56:46;;;;;;;6.93;3.63;;;5.20;99.90;;;;;;4996495;28;20709;-79
2022/11/22 07:59:12;;;;;;;5.30;3.70;;;5.30;99.90;;;;;;4994662;28;20649;-79
2022/11/22 08:01:37;;;;;;;5.20;4.00;;;5.30;99.90;;;;;;4995101;28;20180;-79
2022/11/22 08:04:03;;;;;;;7.20;3.50;;;5.30;99.90;;;;;;5052685;23;20224;-82
2022/11/22 08:06:29;;;;;;;6.53;3.70;;;5.30;99.90;;;;;;4993867;28;20202;-82
2022/11/22 08:08:54;;;;;;;6.87;3.67;;;5.40;99.90;;;;;;4994951;28;20168;-79
2022/11/22 08:11:20;;;;;;;6.57;4.33;;;5.40;99.90;;;;;;4995870;28;20182;-83
2022/11/22 08:13:45;;;;;;;9.00;4.97;;;5.50;99.90;;;;;;4981464;28;20238;-81
2022/11/22 08:16:14;;;;;;;7.43;4.47;;;5.50;99.90;;;;;;4974891;28;20180;-82
2022/11/22 08:18:44;;;;;;;7.13;3.87;;;5.60;99.90;;;;;;4974534;28;20183;-82
2022/11/22 08:21:13;;;;;;;8.37;4.33;;;5.60;99.90;;;;;;4974523;28;20183;-84
2022/11/22 08:23:39;;;;;;;8.87;5.30;;;5.60;99.90;;;;;;4979621;28;20235;-85
2022/11/22 08:26:07;;;;;;;9.87;5.00;;;5.60;99.90;;;;;;4974522;28;20199;-85
2022/11/22 08:28:33;;;;;;;6.07;3.53;;;5.70;99.90;;;;;;4974052;28;20218;-85
2022/11/22 08:31:08;;;;;;;6.00;3.53;;;5.70;99.90;;;;;;4975664;28;20617;-85
2022/11/22 08:33:34;;;;;;;7.70;3.57;;;5.80;99.90;;;;;;4975773;28;20600;-84
2022/11/22 08:35:59;;;;;;;7.60;3.60;;;5.80;99.90;;;;;;4974626;28;20191;-84
2022/11/22 08:38:26;;;;;;;6.60;4.20;;;5.80;99.90;;;;;;4974268;28;20177;-84
2022/11/22 08:40:51;;;;;;;9.17;3.87;;;5.90;99.90;;;;;;4974099;28;20182;-84
2022/11/22 08:43:17;;;;;;;11.50;6.23;;;5.90;99.90;;;;;;4974132;28;20203;-84
2022/11/22 08:45:43;;;;;;;12.50;5.57;;;5.90;99.90;;;;;;4974990;28;20232;-84
2022/11/22 08:48:08;;;;;;;10.33;4.27;;;6.00;99.90;;;;;;4974886;28;20207;-84
2022/11/22 08:50:34;;;;;;;7.97;4.10;;;5.90;99.90;;;;;;4973694;28;20246;-84
2022/11/22 08:53:00;;;;;;;8.07;4.13;;;5.90;99.90;;;;;;4975177;28;20760;-85
2022/11/22 08:55:26;;;;;;;6.27;3.90;;;5.90;99.90;;;;;;4974827;28;20252;-84
2022/11/22 08:57:51;;;;;;;8.50;4.40;;;5.90;99.90;;;;;;4974322;28;20215;-85
2022/11/22 09:00:17;;;;;;;8.23;3.33;;;5.90;99.90;;;;;;4974696;28;20177;-84
2022/11/22 09:02:43;;;;;;;4.80;3.10;;;6.00;99.90;;;;;;4973456;28;20219;-84
2022/11/22 09:05:08;;;;;;;8.33;3.43;;;6.00;99.90;;;;;;4974906;28;20651;-84
2022/11/22 09:07:34;;;;;;;7.37;2.80;;;6.00;99.90;;;;;;4974260;28;20259;-84
2022/11/22 09:09:59;;;;;;;8.90;2.97;;;6.00;99.90;;;;;;4965619;28;20177;-84
2022/11/22 09:12:25;;;;;;;7.77;2.83;;;6.00;99.90;;;;;;4977305;28;20249;-85
2022/11/22 09:14:51;;;;;;;7.00;2.77;;;6.10;99.90;;;;;;4974346;28;20185;-85
2022/11/22 09:17:16;;;;;;;5.83;2.40;;;6.10;99.90;;;;;;4974936;28;20189;-85
2022/11/22 09:19:43;;;;;;;6.50;2.67;;;6.10;99.90;;;;;;4974582;28;20176;-84
2022/11/22 09:22:08;;;;;;;7.37;3.00;;;6.10;99.90;;;;;;4975902;28;20188;-84
2022/11/22 09:24:34;;;;;;;8.30;2.90;;;6.10;99.90;;;;;;4975492;28;20181;-84
2022/11/22 09:26:59;;;;;;;6.80;2.70;;;6.10;99.90;;;;;;4974323;28;20292;-84
2022/11/22 09:29:25;;;;;;;5.90;2.50;;;6.10;99.90;;;;;;4973259;28;20180;-84
2022/11/22 09:31:51;;;;;;;7.83;2.70;;;6.20;99.90;;;;;;4974895;28;20666;-84
2022/11/22 09:34:16;;;;;;;8.23;2.97;;;6.20;99.90;;;;;;4976854;28;20223;-80
2022/11/22 09:36:42;;;;;;;8.37;3.63;;;6.20;99.90;;;;;;4974152;28;20203;-85
2022/11/22 09:39:08;;;;;;;10.07;3.30;;;6.20;99.90;;;;;;4974317;28;20186;-85
2022/11/22 09:42:03;;;;;;;8.10;2.53;;;6.30;99.90;;;;;;4974854;28;20543;-85
2022/11/22 09:45:11;;;;;;;11.80;3.53;;;6.30;99.90;;;;;;4965841;28;20194;-86
2022/11/22 09:48:14;;;;;;;9.53;5.50;;;6.40;99.90;;;;;;4974013;28;20219;-82
2022/11/22 09:50:52;;;;;;;9.17;3.30;;;6.40;99.90;;;;;;4967477;28;20174;-85
2022/11/22 09:53:24;;;;;;;9.53;2.90;;;6.50;99.90;;;;;;4973062;28;20192;-84
2022/11/22 09:55:57;;;;;;;10.63;3.70;;;6.60;99.90;;;;;;4972984;28;20181;-84
2022/11/22 09:58:27;;;;;;;9.10;3.10;;;6.60;99.90;;;;;;4973420;28;20174;-85
2022/11/22 10:00:56;;;;;;;9.03;3.10;;;6.50;99.90;;;;;;4972795;28;20181;-85
2022/11/22 10:04:15;;;;;;;11.03;4.40;;;6.50;99.90;;;;;;4973836;28;20221;-85
2022/11/22 10:06:44;;;;;;;18.57;9.33;;;6.60;99.90;;;;;;4940546;28;20226;-85
2022/11/22 10:09:37;;;;;;;12.57;5.13;;;6.60;99.90;;;;;;4973609;28;20682;-85
2022/11/22 10:12:21;;;;;;;16.60;7.83;;;6.60;99.90;;;;;;4973203;28;20185;-84
2022/11/22 10:14:54;;;;;;;6.97;2.83;;;6.60;99.90;;;;;;4974310;28;20177;-84
2022/11/22 10:17:28;;;;;;;12.47;2.70;;;6.70;99.90;;;;;;4974498;28;20268;-84
2022/11/22 10:20:00;;;;;;;5.60;3.20;;;6.70;99.90;;;;;;4972306;28;20217;-85
2022/11/22 10:22:29;;;;;;;4.87;2.47;;;6.70;99.90;;;;;;4973845;28;20292;-85
2022/11/22 10:24:57;;;;;;;20.33;9.00;;;6.70;99.90;;;;;;4974169;28;20186;-85
2022/11/22 10:27:30;;;;;;;6.47;2.63;;;6.70;99.90;;;;;;4974007;28;20747;-83
2022/11/22 10:30:12;;;;;;;7.77;2.47;;;6.70;99.90;;;;;;4973713;28;20181;-85
2022/11/22 10:32:54;;;;;;;7.30;3.00;;;6.70;99.90;;;;;;4974700;28;20600;-83
2022/11/22 10:35:32;;;;;;;7.03;2.67;;;6.70;99.90;;;;;;4974200;28;20195;-87
2022/11/22 10:38:10;;;;;;;12.00;4.77;;;6.70;99.90;;;;;;4973048;28;20186;-87
2022/11/22 10:40:49;;;;;;;9.30;3.93;;;6.80;99.90;;;;;;4972183;28;20644;-85
2022/11/22 10:43:26;;;;;;;8.00;2.87;;;6.80;99.90;;;;;;4973201;28;20199;-86
2022/11/22 10:46:14;;;;;;;5.63;2.30;;;6.70;99.90;;;;;;4973510;28;20552;-87
2022/11/22 10:48:51;;;;;;;9.77;1.90;;;6.70;99.90;;;;;;4971996;28;20179;-83
2022/11/22 10:51:25;;;;;;;8.57;2.43;;;6.80;99.90;;;;;;4972352;28;20182;-84
2022/11/22 10:54:12;;;;;;;9.20;2.90;;;6.80;99.90;;;;;;4973294;28;20295;-83
2022/11/22 10:56:54;;;;;;;7.70;2.10;;;6.90;99.90;;;;;;4972599;28;20542;-82
2022/11/22 10:59:31;;;;;;;8.07;2.07;;;6.90;99.90;;;;;;4971682;28;20187;-82
2022/11/22 11:02:09;;;;;;;6.87;2.33;;;7.00;99.90;;;;;;4972221;28;20197;-82
2022/11/22 11:04:39;;;;;;;5.10;1.83;;;7.10;99.90;;;;;;4973299;28;20204;-83
2022/11/22 11:07:10;;;;;;;6.90;1.80;;;7.20;99.90;;;;;;4972012;28;20683;-82
2022/11/22 11:09:41;;;;;;;6.07;1.80;;;7.20;99.90;;;;;;4971968;28;20184;-82
2022/11/22 11:12:14;;;;;;;6.83;2.03;;;7.30;99.90;;;;;;4971955;28;20180;-82
2022/11/22 11:14:45;;;;;;;6.87;2.20;;;7.40;99.90;;;;;;4972085;28;20186;-82
2022/11/22 11:17:25;;;;;;;5.53;1.70;;;7.30;99.90;;;;;;4972499;28;20251;-81
2022/11/22 11:19:53;;;;;;;3.70;1.50;;;7.30;99.90;;;;;;4972525;28;20206;-80
2022/11/22 11:22:24;;;;;;;5.83;1.90;;;7.20;99.90;;;;;;4974084;28;20195;-81
2022/11/22 11:24:50;;;;;;;5.17;1.57;;;7.20;99.90;;;;;;4975921;28;20188;-81
2022/11/22 11:27:18;;;;;;;9.37;2.00;;;7.20;99.90;;;;;;4979706;28;20223;-80
2022/11/22 11:29:45;;;;;;;7.63;1.97;;;7.10;99.90;;;;;;4977228;28;20187;-82
2022/11/22 11:32:19;;;;;;;6.20;1.97;;;7.10;99.90;;;;;;4976204;28;20194;-80
2022/11/22 11:35:06;;;;;;;7.23;1.90;;;7.10;99.90;;;;;;4975825;28;20241;-81
2022/11/22 11:37:35;;;;;;;7.13;1.90;;;7.30;99.90;;;;;;4975518;28;20178;-82
2022/11/22 11:40:05;;;;;;;6.50;1.90;;;7.30;99.90;;;;;;4977386;28;20249;-84
2022/11/22 11:42:34;;;;;;;3.80;2.30;;;7.30;99.90;;;;;;4978443;28;20199;-85
2022/11/22 11:45:27;;;;;;;5.77;1.83;;;7.20;99.90;;;;;;4976767;28;20182;-86
2022/11/22 12:13:54;;;;;;;6.57;2.10;;;7.50;99.90;;;;;;5477952;23;20229;-81
2022/11/22 12:16:38;;;;;;;8.33;3.47;;;7.60;99.90;;;;;;5013690;28;20646;-83
2022/11/22 12:19:15;;;;;;;4.10;1.90;;;7.80;99.90;;;;;;5013451;28;20198;-84
2022/11/22 12:21:46;;;;;;;6.37;1.57;;;8.10;99.90;;;;;;5013602;28;20272;-83
2022/11/22 12:24:29;;;;;;;4.30;1.70;;;8.20;99.90;;;;;;5014105;28;20194;-82
2022/11/22 12:26:55;;;;;;;5.63;1.83;;;8.00;99.90;;;;;;5025440;23;20312;-82
2022/11/22 12:29:21;;;;;;;4.07;1.50;;;8.00;99.90;;;;;;4995024;28;20221;-82
2022/11/22 12:32:01;;;;;;;3.50;1.40;;;7.90;99.90;;;;;;4993366;28;20261;-82
2022/11/22 12:34:34;;;;;;;4.83;1.63;;;7.70;99.90;;;;;;4990427;28;20672;-82
2022/11/22 12:37:24;;;;;;;3.20;1.70;;;7.40;99.90;;;;;;4981450;28;20200;-82
2022/11/22 12:39:53;;;;;;;4.27;2.00;;;7.20;99.90;;;;;;4974126;28;20180;-82
2022/11/22 12:42:29;;;;;;;3.73;1.70;;;7.10;99.90;;;;;;4973612;28;20258;-82
2022/11/22 12:45:05;;;;;;;4.20;1.70;;;7.00;99.90;;;;;;4975052;28;20251;-82
2022/11/22 12:47:37;;;;;;;5.60;1.80;;;6.90;99.90;;;;;;4974696;28;20704;-82
2022/11/22 12:50:10;;;;;;;4.17;1.80;;;6.90;99.90;;;;;;4973981;28;20290;-82
2022/11/22 12:52:46;;;;;;;5.57;1.93;;;6.80;99.90;;;;;;4973573;28;20183;-82
2022/11/22 12:55:20;;;;;;;6.47;1.90;;;6.80;99.90;;;;;;4973706;28;20188;-82
2022/11/22 12:58:28;;;;;;;6.30;1.90;;;6.80;99.90;;;;;;4974881;28;20203;-82
2022/11/22 13:01:17;;;;;;;2.70;1.60;;;6.80;99.90;;;;;;4969229;28;20247;-82
2022/11/22 13:04:08;;;;;;;4.83;1.90;;;6.90;99.90;;;;;;4970672;28;20309;-82
2022/11/22 13:06:55;;;;;;;6.20;1.77;;;7.20;99.90;;;;;;4974696;28;20263;-83
2022/11/22 13:09:50;;;;;;;5.27;1.80;;;7.30;99.90;;;;;;4974496;28;20525;-82
2022/11/22 13:12:33;;;;;;;4.53;1.40;;;7.40;99.90;;;;;;4974452;28;20182;-83
2022/11/22 13:15:00;;;;;;;4.73;1.63;;;7.50;99.90;;;;;;4973828;28;20186;-84
2022/11/22 13:17:34;;;;;;;5.23;1.80;;;7.50;99.90;;;;;;4973879;28;20293;-83
2022/11/22 13:20:20;;;;;;;8.87;2.00;;;7.40;99.90;;;;;;4973575;28;20182;-83
2022/11/22 13:23:04;;;;;;;5.40;1.97;;;7.30;99.90;;;;;;4972816;28;20708;-83
2022/11/22 13:25:48;;;;;;;5.10;1.83;;;7.20;99.90;;;;;;4972814;28;20190;-82
2022/11/22 13:28:19;;;;;;;4.53;1.87;;;7.10;99.90;;;;;;4974119;28;20622;-83
2022/11/22 13:31:04;;;;;;;5.33;1.63;;;7.00;99.90;;;;;;4972576;28;20643;-82
2022/11/22 13:33:31;;;;;;;5.93;1.90;;;6.90;99.90;;;;;;4971922;28;20234;-82
2022/11/22 13:36:29;;;;;;;4.33;1.67;;;6.80;99.90;;;;;;4973347;28;20234;-83
2022/11/22 13:38:57;;;;;;;5.80;1.67;;;6.80;99.90;;;;;;4961858;28;20179;-82
2022/11/22 13:41:33;;;;;;;3.20;1.90;;;6.80;99.90;;;;;;4974124;28;20296;-83
2022/11/22 13:44:15;;;;;;;5.73;2.00;;;6.80;99.90;;;;;;4973618;28;20202;-83
2022/11/22 13:47:02;;;;;;;3.53;2.00;;;6.70;99.90;;;;;;4971460;28;20564;-83
2022/11/22 13:49:32;;;;;;;3.83;1.87;;;6.70;99.90;;;;;;4973766;28;20179;-82
2022/11/22 13:52:04;;;;;;;5.70;1.83;;;6.60;99.90;;;;;;4973745;28;20189;-83
2022/11/22 13:54:35;;;;;;;6.90;2.00;;;6.60;99.90;;;;;;4973685;28;20178;-83